x

Halibut Bank (46146) Wave Buoy

7:00 - Wed 7th Dec 2016 All times are PST. -8 hours from GMT.

  • Sig Wave height 1.6ft
  • Peak Period 3s
  • Wind
    18mph, 25mph gusts
  • Sea Temp 47°f
  • Aire Temp 33°f
  • Sea Pressure 1032.2mb
  • Halibut Bank
  • Halibut Bank

More Historic Weather Station data

Upgrade to MSW Pro to gain access to the past 30 days of data for over 8000 Wavebouys and Weather Stations around the globe.

Join Pro

Comparision Forecast

View Surf forecast
   
mié 12/07 7:00 1.6ft 3s 18 25 mph 1032.2mb 47f 33f
6:00 1.6ft 4s 13 18 mph 1032.4mb 47f 33f
5:00 1.6ft 4s 11 16 mph 1032mb 47f 34f
4:00 1.6ft 4s 9 13 mph 1032mb 47f 34f
3:00 2ft 4s 13 16 mph 1031.9mb 47f 34f
2:00 2ft 4s 13 18 mph 1031.6mb 47f 34f
1:00 2ft 4s 16 20 mph 1030.9mb 47f 35f
12:00 2ft 4s 16 20 mph 1030.4mb 47f 35f
mar 12/06 11:00 1.3ft 3s 9 13 mph 1029.8mb 47f 35f
10:00 1.3ft 3s 7 11 mph 1029mb 47f 36f
9:00 1ft 2s 9 13 mph 1028.2mb 47f 37f
7:00 1.3ft 3s 11 13 mph 1027.1mb 47f 37f
6:00 1.3ft 2s 13 18 mph 1026.7mb 47f 38f
4:00 1ft 4s 7 11 mph 1025.7mb 47f 39f
3:00 1ft 3s 4 9 mph 1025mb 46f 39f
2:00 1ft 3s 2 4 mph 1024.3mb 44f 39f
1:00 1ft 3s 4 7 mph 1024mb 44f 38f
12:00 1ft 3s  -  4 mph 1023.7mb 44f 39f
9:00 1ft 2s 2 4 mph 1022.5mb 44f 38f
8:00 1ft 3s 7 9 mph 1021.9mb 47f 37f
7:00 1ft 3s 2 4 mph 1021.4mb 46f 37f
6:00 1ft 2s 9 11 mph 1021mb 47f 37f
5:00 1ft 4s 9 11 mph 1020.8mb 47f 38f
4:00 1ft 4s 9 11 mph 1020.6mb 47f 38f
3:00 1ft 5s 13 16 mph 1020.2mb 47f 38f
2:00 1ft 2s 11 13 mph 1019.6mb 47f 39f
1:00 1ft 2s 13 16 mph 1019.1mb 47f 39f
12:00 1.3ft 4s 13
mph
1018.7mb 47f 39f
lun 12/05 11:00 1.6ft 4s 9 13 mph 1018.3mb 47f 39f
10:00 1.3ft 3s 13 18 mph 1017.9mb 47f 40f
9:00 1.3ft 3s 16 20 mph 1017.5mb 47f 40f
8:00 1.3ft 3s 13 20 mph 1017.3mb 47f 39f
7:00 1.6ft 3s 16 22 mph 1017.1mb 47f 39f
6:00 1.6ft 3s 18 22 mph 1016.7mb 47f 38f
5:00 1.6ft 4s 18 20 mph 1016.5mb 48f 38f
4:00 1.6ft 4s 16 18 mph 1016.3mb 48f 38f
3:00 2ft 4s 16 18 mph 1016.2mb 48f 38f
2:00 2ft 4s 16 20 mph 1016.1mb 48f 38f
1:00 2.5ft 5s 18 20 mph 1016.1mb 48f 37f
12:00 2ft 4s 18 22 mph 1016.3mb 48f 37f
11:00 2ft 3s 20 22 mph 1016.2mb 48f 37f
10:00 2ft 4s 20 25 mph 1016.2mb 48f 37f
9:00 2.5ft 4s 22 25 mph 1015.9mb 47f 37f
8:00 2.5ft 4s 20 22 mph 1016.4mb 48f 35f
7:00 2.5ft 4s 22 25 mph 1016.8mb 48f 35f
6:00 2.5ft 4s 22 27 mph 1016.9mb 48f 37f
5:00 2.5ft 3s 22 27 mph 1017mb 48f 39f
4:00 2ft 3s 22 27 mph 1017.4mb 48f 40f
3:00 1.6ft 3s 20 22 mph 1018mb 48f 40f
2:00 1.3ft 3s 18 22 mph 1018.4mb 48f 40f
1:00 1ft 3s 18 20 mph 1018.6mb 48f 40f
12:00 1ft 3s 16 18 mph 1019mb 48f 40f
dom 12/04 11:00 0.7ft 2s 9 11 mph 1019.1mb 48f 41f
10:00 0.7ft 2s 4
mph
1019.1mb 48f 41f
9:00 1ft 3s 7 9 mph 1018.8mb 48f 40f
8:00 1.3ft 4s 7
mph
1018.3mb 48f 41f
7:00 1.6ft 4s 7 9 mph 1018.2mb 48f 42f
6:00 1.6ft 4s 11 16 mph 1018.2mb 48f 43f
5:00 2.5ft 4s 13 18 mph 1017.8mb 48f 43f
4:00 2.5ft 4s 18 22 mph 1017.3mb 48f 44f
3:00 3ft 4s 22 25 mph 1016.8mb 48f 44f
2:00 3.5ft 5s 25 29 mph 1016.4mb 48f 44f
1:00 4ft 4s 27 29 mph 1016.5mb 48f 43f
12:00 3.5ft 4s 25 27 mph 1016.8mb 48f 42f
11:00 4ft 4s 27 31 mph 1016.4mb 48f 42f
10:00 4.5ft 5s 29 40 mph 1015.9mb 48f 42f
9:00 4.5ft 4s 31 36 mph 1014.8mb 48f 42f
8:00 4ft 4s 29 36 mph 1014.6mb 48f 42f
7:00 3.5ft 4s 29 36 mph 1014.1mb 48f 42f
6:00 3ft 4s 27 31 mph 1014.7mb 48f 42f
5:00 2.5ft 4s 25 29 mph 1014.9mb 48f 42f
4:00 2.5ft 4s 20 25 mph 1015.1mb 48f 40f
3:00 1ft 4s 27 31 mph 1014.9mb 48f 43f
2:00 1ft 4s 11 18 mph 1015.3mb 48f 44f
1:00 1ft 4s 13 18 mph 1015.4mb 48f 44f
12:00 1.3ft 3s 13 16 mph 1015.8mb 48f 44f
sáb 12/03 11:00 0.7ft 2s 13 18 mph 1016mb 48f 43f
10:00 0.7ft 2s 9 11 mph 1016.2mb 48f 47f
9:00 1ft 2s 9
mph
1016.3mb 48f 47f
8:00 1ft 2s 9
mph
1016.8mb 48f 47f
7:00 1ft 3s 11 13 mph 1017.4mb 48f 47f
6:00 0.7ft 4s 7 9 mph 1018.3mb 47f 47f
5:00 1ft 3s 11 13 mph 1019.1mb 48f 46f